Time;durP1;ratioP1;P1;durP2;ratioP2;P2;SDS_P1;SDS_P2;PMS_P1;PMS_P2;Temp;Humidity;BMP_temperature;BMP_pressure;BME280_temperature;BME280_humidity;BME280_pressure;Samples;Min_cycle;Max_cycle;Signal;HPM_P1;HPM_P2
2022/09/24 00:01:55;;;;;;;7.78;6.25;;;15.10;99.90;;;;;;5030232;28;20203;-78
2022/09/24 00:04:26;;;;;;;13.35;7.32;;;15.00;99.90;;;;;;5033909;28;20206;-78
2022/09/24 00:06:54;;;;;;;14.43;7.95;;;15.00;99.90;;;;;;5030536;28;20199;-78
2022/09/24 00:09:22;;;;;;;11.85;7.07;;;14.90;99.90;;;;;;5039426;28;20227;-78
2022/09/24 00:11:52;;;;;;;11.93;8.40;;;14.90;99.90;;;;;;5034656;28;20214;-78
2022/09/24 00:14:19;;;;;;;8.88;7.93;;;14.90;99.90;;;;;;5031117;28;20202;-78
2022/09/24 00:16:47;;;;;;;10.15;8.27;;;14.90;99.90;;;;;;5035658;28;20207;-78
2022/09/24 00:19:15;;;;;;;11.23;8.82;;;14.80;99.90;;;;;;5028097;28;20214;-78
2022/09/24 00:21:44;;;;;;;11.38;8.45;;;14.80;99.90;;;;;;5032776;28;20191;-78
2022/09/24 00:26:48;;;;;;;12.60;9.02;;;14.90;99.90;;;;;;5030985;28;20198;-78
2022/09/24 00:27:04;;;;;;;10.98;8.40;;;14.90;99.90;;;;;;5030599;28;20199;-78
2022/09/24 00:29:32;;;;;;;12.88;8.30;;;14.80;99.90;;;;;;5026453;28;20215;-78
2022/09/24 00:32:00;;;;;;;10.95;7.82;;;14.90;99.90;;;;;;5031915;28;20198;-78
2022/09/24 00:34:27;;;;;;;10.77;8.13;;;15.00;99.90;;;;;;5032877;28;20274;-78
2022/09/24 00:36:56;;;;;;;9.55;8.52;;;15.00;99.90;;;;;;5030224;28;20194;-78
2022/09/24 00:39:24;;;;;;;11.32;9.27;;;15.10;99.90;;;;;;5024140;28;20226;-78
2022/09/24 00:41:51;;;;;;;12.00;9.32;;;15.00;99.90;;;;;;5030678;28;20187;-79
2022/09/24 00:44:50;;;;;;;11.20;9.05;;;14.80;99.90;;;;;;5032789;28;20204;-78
2022/09/24 00:47:26;;;;;;;11.73;10.13;;;14.80;99.90;;;;;;5033433;28;20199;-78
2022/09/24 00:49:56;;;;;;;12.30;10.35;;;14.90;99.90;;;;;;5035605;28;20215;-78
2022/09/24 00:52:26;;;;;;;12.13;10.85;;;14.90;99.90;;;;;;5021045;28;20207;-78
2022/09/24 00:54:54;;;;;;;14.57;10.43;;;14.70;99.90;;;;;;5033684;28;20554;-78
2022/09/24 00:57:23;;;;;;;15.82;11.73;;;14.70;99.90;;;;;;5036467;28;20675;-78
2022/09/24 00:59:50;;;;;;;14.23;12.00;;;14.80;99.90;;;;;;5034200;28;20226;-78
2022/09/24 01:02:18;;;;;;;13.65;11.48;;;14.80;99.90;;;;;;5042131;28;20203;-78
2022/09/24 01:04:47;;;;;;;15.25;12.93;;;14.80;99.90;;;;;;5037801;28;20191;-78
2022/09/24 01:07:14;;;;;;;12.85;11.52;;;14.80;99.90;;;;;;5040584;28;20570;-78
2022/09/24 01:09:43;;;;;;;14.95;12.95;;;14.80;99.90;;;;;;5035170;28;20226;-78
2022/09/24 01:12:18;;;;;;;14.05;12.57;;;14.80;99.90;;;;;;5028999;28;20708;-78
2022/09/24 01:15:15;;;;;;;13.95;12.48;;;14.70;99.90;;;;;;5032009;28;20191;-78
2022/09/24 01:17:52;;;;;;;14.13;11.80;;;14.80;99.90;;;;;;5025369;28;20685;-78
2022/09/24 01:20:51;;;;;;;19.80;15.68;;;14.90;99.90;;;;;;5032689;28;20703;-78
2022/09/24 01:23:35;;;;;;;19.23;15.82;;;14.80;99.90;;;;;;5029942;28;20221;-78
2022/09/24 01:26:18;;;;;;;20.05;16.30;;;14.90;99.90;;;;;;5025021;28;20672;-78
2022/09/24 01:29:04;;;;;;;19.80;15.35;;;14.90;99.90;;;;;;5043066;28;20223;-78
2022/09/24 01:31:40;;;;;;;20.42;17.52;;;14.90;99.90;;;;;;5018739;28;20206;-78
2022/09/24 01:34:11;;;;;;;21.67;17.98;;;14.90;99.90;;;;;;5031675;28;20197;-78
2022/09/24 01:36:40;;;;;;;22.27;18.17;;;14.70;99.90;;;;;;5035109;28;20206;-78
2022/09/24 01:39:08;;;;;;;20.85;18.02;;;14.60;99.90;;;;;;5037721;28;20229;-78
2022/09/24 01:41:38;;;;;;;22.55;19.00;;;14.70;99.90;;;;;;5029563;28;20211;-79
2022/09/24 01:44:06;;;;;;;26.50;20.45;;;14.70;99.90;;;;;;5036821;28;20198;-78
2022/09/24 01:46:38;;;;;;;25.50;20.05;;;14.60;99.90;;;;;;5022507;28;20198;-78
2022/09/24 01:49:06;;;;;;;24.17;20.92;;;14.60;99.90;;;;;;5027537;28;20706;-78
2022/09/24 01:51:42;;;;;;;24.00;20.10;;;14.60;99.90;;;;;;5025899;28;20202;-78
2022/09/24 01:54:16;;;;;;;23.15;20.10;;;14.60;99.90;;;;;;5036100;28;20202;-78
2022/09/24 01:56:50;;;;;;;23.10;19.50;;;14.60;99.90;;;;;;5030684;28;20214;-78
2022/09/24 01:59:23;;;;;;;24.17;20.75;;;14.60;99.90;;;;;;5028109;28;20226;-78
2022/09/24 02:01:58;;;;;;;24.20;20.17;;;14.60;99.90;;;;;;5032799;28;20207;-78
2022/09/24 02:04:29;;;;;;;23.73;19.83;;;14.60;99.90;;;;;;5023312;28;20210;-78
2022/09/24 02:07:01;;;;;;;24.50;18.88;;;14.60;99.90;;;;;;5049923;28;20194;-78
2022/09/24 02:09:34;;;;;;;20.88;18.42;;;14.70;99.90;;;;;;5033630;28;20233;-78
2022/09/24 02:12:09;;;;;;;21.52;18.60;;;14.70;99.90;;;;;;5024098;28;20262;-78
2022/09/24 02:14:42;;;;;;;19.58;17.25;;;14.70;99.90;;;;;;5029441;28;20194;-78
2022/09/24 02:17:12;;;;;;;20.70;18.38;;;14.70;99.90;;;;;;5028455;28;20202;-78
2022/09/24 02:19:41;;;;;;;23.63;18.92;;;14.80;99.90;;;;;;5034984;28;20222;-78
2022/09/24 02:22:12;;;;;;;20.15;17.05;;;14.80;99.90;;;;;;5042715;28;20222;-78
2022/09/24 02:24:46;;;;;;;21.90;18.00;;;14.80;99.90;;;;;;5027623;28;20219;-78
2022/09/24 02:27:14;;;;;;;20.40;17.25;;;14.80;99.90;;;;;;5032633;28;20206;-78
2022/09/24 02:29:41;;;;;;;21.70;17.73;;;14.80;99.90;;;;;;5018907;28;20227;-78
2022/09/24 02:32:14;;;;;;;21.20;18.10;;;14.80;99.90;;;;;;5036544;28;20554;-78
2022/09/24 02:34:45;;;;;;;18.65;16.55;;;14.80;99.90;;;;;;5034515;28;20533;-79
2022/09/24 02:37:14;;;;;;;20.35;17.65;;;14.80;99.90;;;;;;5035692;28;20194;-79
2022/09/24 02:39:44;;;;;;;19.85;17.58;;;14.80;99.90;;;;;;5038020;28;20577;-78
2022/09/24 02:42:14;;;;;;;19.35;16.52;;;14.70;99.90;;;;;;5030170;28;20219;-78
2022/09/24 02:44:42;;;;;;;20.17;15.77;;;14.60;99.90;;;;;;5034001;28;20202;-78
2022/09/24 02:47:09;;;;;;;21.13;16.70;;;14.50;99.90;;;;;;5031355;28;20203;-78
2022/09/24 02:49:38;;;;;;;17.13;15.15;;;14.50;99.90;;;;;;5037522;28;20706;-78
2022/09/24 02:52:05;;;;;;;19.48;15.57;;;14.50;99.90;;;;;;5028741;28;20203;-78
2022/09/24 02:54:33;;;;;;;17.23;15.27;;;14.50;99.90;;;;;;5037537;28;20202;-78
2022/09/24 02:57:00;;;;;;;22.20;16.67;;;14.50;99.90;;;;;;5030829;28;20198;-78
2022/09/24 02:59:28;;;;;;;18.98;16.35;;;14.50;99.90;;;;;;5035663;28;20586;-78
2022/09/24 03:01:55;;;;;;;18.77;15.43;;;14.50;99.90;;;;;;5035758;28;20211;-78
2022/09/24 03:04:24;;;;;;;19.90;15.57;;;14.50;99.90;;;;;;5034599;28;20210;-78
2022/09/24 03:06:53;;;;;;;20.30;15.98;;;14.50;99.90;;;;;;5035501;28;20195;-78
2022/09/24 03:09:20;;;;;;;18.23;15.93;;;14.50;99.90;;;;;;5030358;28;20226;-78
2022/09/24 03:11:49;;;;;;;19.73;16.10;;;14.50;99.90;;;;;;5053926;23;20198;-88
2022/09/24 03:14:16;;;;;;;21.90;17.00;;;14.50;99.90;;;;;;5012249;28;20192;-84
2022/09/24 03:16:43;;;;;;;19.63;16.65;;;14.40;99.90;;;;;;5020589;28;20206;-84
2022/09/24 03:19:11;;;;;;;19.50;16.75;;;14.30;99.90;;;;;;5010586;28;20204;-83
2022/09/24 03:21:38;;;;;;;19.77;17.25;;;14.30;99.90;;;;;;5012838;28;20212;-82
2022/09/24 03:24:07;;;;;;;21.20;16.63;;;14.30;99.90;;;;;;5011056;28;20201;-82
2022/09/24 03:26:35;;;;;;;20.67;17.40;;;14.50;99.90;;;;;;4995975;28;20215;-82
2022/09/24 03:29:09;;;;;;;19.45;16.73;;;14.40;99.90;;;;;;5010545;28;20566;-82
2022/09/24 03:31:36;;;;;;;21.55;18.50;;;14.40;99.90;;;;;;4999629;28;20196;-82
2022/09/24 03:34:04;;;;;;;21.15;17.98;;;14.40;99.90;;;;;;5017806;28;20203;-84
2022/09/24 03:36:31;;;;;;;20.52;17.58;;;14.40;99.90;;;;;;5013537;28;20200;-82
2022/09/24 03:38:58;;;;;;;19.63;17.55;;;14.40;99.90;;;;;;5012945;28;20200;-82
2022/09/24 03:41:28;;;;;;;20.58;18.42;;;14.40;99.90;;;;;;5011451;28;20220;-82
2022/09/24 03:43:56;;;;;;;21.20;17.80;;;14.50;99.90;;;;;;5012718;28;20224;-81
2022/09/24 03:46:28;;;;;;;21.08;17.92;;;14.60;99.90;;;;;;4998257;28;20200;-82
2022/09/24 03:48:58;;;;;;;22.58;17.45;;;14.50;99.90;;;;;;4998165;28;20215;-82
2022/09/24 03:51:26;;;;;;;23.48;18.42;;;14.50;99.90;;;;;;5013288;28;20207;-82
2022/09/24 03:53:53;;;;;;;19.27;16.50;;;14.50;99.90;;;;;;4997540;28;20220;-81
2022/09/24 03:56:21;;;;;;;21.25;17.40;;;14.40;99.90;;;;;;4997591;28;20208;-82
2022/09/24 03:58:50;;;;;;;19.75;17.55;;;14.40;99.90;;;;;;4994232;28;20209;-81
2022/09/24 04:01:19;;;;;;;21.98;18.48;;;14.40;99.90;;;;;;4995479;28;20205;-81
2022/09/24 04:03:47;;;;;;;23.45;19.10;;;14.40;99.90;;;;;;5008114;28;20220;-83
2022/09/24 04:06:14;;;;;;;23.05;19.15;;;14.30;99.90;;;;;;5008159;28;20301;-81
2022/09/24 04:08:42;;;;;;;21.88;17.42;;;14.40;99.90;;;;;;5008519;28;20199;-81
2022/09/24 04:11:09;;;;;;;22.48;18.83;;;14.40;99.90;;;;;;5009397;28;20205;-81
2022/09/24 04:13:37;;;;;;;24.80;19.05;;;14.40;99.90;;;;;;5021264;28;20228;-82
2022/09/24 04:16:07;;;;;;;23.40;18.15;;;14.40;99.90;;;;;;5019143;28;20200;-81
2022/09/24 04:18:35;;;;;;;23.05;18.48;;;14.30;99.90;;;;;;5022974;28;20200;-82
2022/09/24 04:21:02;;;;;;;23.42;18.73;;;14.30;99.90;;;;;;5020027;28;20213;-81
2022/09/24 04:23:31;;;;;;;20.27;18.08;;;14.30;99.90;;;;;;5008873;28;20223;-83
2022/09/24 04:26:00;;;;;;;22.35;17.60;;;14.40;99.90;;;;;;5022107;28;20204;-82
2022/09/24 04:28:28;;;;;;;20.98;18.55;;;14.50;99.90;;;;;;5009379;28;20681;-81
2022/09/24 04:30:57;;;;;;;21.77;18.45;;;14.50;99.90;;;;;;5023822;28;20204;-81
2022/09/24 04:33:27;;;;;;;19.88;17.75;;;14.40;99.90;;;;;;5010012;28;20674;-81
2022/09/24 04:35:54;;;;;;;22.73;18.58;;;14.40;99.90;;;;;;5007164;28;20216;-82
2022/09/24 04:38:22;;;;;;;19.05;16.67;;;14.30;99.90;;;;;;5019092;28;20197;-82
2022/09/24 04:40:49;;;;;;;19.63;17.38;;;14.40;99.90;;;;;;5021146;28;20207;-81
2022/09/24 04:43:17;;;;;;;18.38;16.13;;;14.40;99.90;;;;;;5009118;28;20246;-81
2022/09/24 04:45:45;;;;;;;20.45;16.10;;;14.40;99.90;;;;;;5009450;28;20217;-81
2022/09/24 04:48:12;;;;;;;18.42;15.63;;;14.40;99.90;;;;;;5006607;28;20223;-81
2022/09/24 04:50:41;;;;;;;20.98;16.15;;;14.30;99.90;;;;;;5018438;28;20204;-82
2022/09/24 04:53:09;;;;;;;19.20;16.73;;;14.40;99.90;;;;;;5018755;28;20224;-81
2022/09/24 04:55:40;;;;;;;22.38;17.15;;;14.30;99.90;;;;;;5022106;28;20200;-81
2022/09/24 04:58:08;;;;;;;21.88;17.05;;;14.40;99.90;;;;;;5004471;28;20219;-81
2022/09/24 05:00:35;;;;;;;20.15;16.52;;;14.30;99.90;;;;;;5008269;28;20205;-81
2022/09/24 05:03:03;;;;;;;19.35;15.43;;;14.30;99.90;;;;;;5009761;28;20231;-82
2022/09/24 05:05:31;;;;;;;20.67;16.05;;;14.20;99.90;;;;;;5016939;28;20280;-83
2022/09/24 05:08:00;;;;;;;19.58;16.35;;;14.30;99.90;;;;;;5024036;28;20606;-82
2022/09/24 05:10:30;;;;;;;19.73;17.05;;;14.30;99.90;;;;;;5009425;28;20192;-81
2022/09/24 05:12:57;;;;;;;19.27;15.65;;;14.30;99.90;;;;;;5022245;28;20239;-81
2022/09/24 05:15:25;;;;;;;20.77;16.17;;;14.30;99.90;;;;;;5013970;28;20212;-82
2022/09/24 05:17:52;;;;;;;19.10;15.75;;;14.20;99.90;;;;;;5010186;28;20204;-82
2022/09/24 05:20:20;;;;;;;19.67;15.27;;;14.20;99.90;;;;;;5001816;28;20205;-83
2022/09/24 05:22:49;;;;;;;20.05;15.75;;;14.30;99.90;;;;;;5000449;28;20236;-82
2022/09/24 05:25:19;;;;;;;18.35;16.23;;;14.20;99.90;;;;;;5003542;28;20258;-82
2022/09/24 05:27:47;;;;;;;17.42;15.57;;;14.10;99.90;;;;;;5004892;28;20203;-82
2022/09/24 05:30:19;;;;;;;19.10;15.32;;;14.10;99.90;;;;;;5005718;28;20207;-82
2022/09/24 05:32:51;;;;;;;20.58;15.55;;;14.20;99.90;;;;;;5019265;28;20227;-82
2022/09/24 05:35:18;;;;;;;18.02;15.40;;;14.30;99.90;;;;;;5004218;28;20688;-82
2022/09/24 05:37:49;;;;;;;17.15;14.50;;;14.30;99.90;;;;;;5008632;28;20204;-82
2022/09/24 05:43:06;;;;;;;16.58;14.10;;;14.20;99.90;;;;;;5007935;28;20224;-82
2022/09/24 05:45:33;;;;;;;18.60;14.30;;;14.10;99.90;;;;;;5001403;28;20192;-82
2022/09/24 05:48:01;;;;;;;17.27;14.20;;;14.10;99.90;;;;;;5016409;28;20678;-84
2022/09/24 05:50:29;;;;;;;18.00;14.77;;;14.10;99.90;;;;;;5015698;28;20203;-81
2022/09/24 05:53:03;;;;;;;15.73;14.00;;;14.10;99.90;;;;;;4999915;28;21700;-81
2022/09/24 05:55:32;;;;;;;16.20;14.27;;;14.10;99.90;;;;;;5011536;28;20208;-79
2022/09/24 05:58:05;;;;;;;16.85;13.68;;;14.10;99.90;;;;;;4997579;28;20208;-80
2022/09/24 06:00:35;;;;;;;18.75;14.35;;;14.10;99.90;;;;;;5008519;28;20647;-84
2022/09/24 06:03:07;;;;;;;17.02;14.27;;;14.30;99.90;;;;;;5001988;28;20224;-80
2022/09/24 06:05:36;;;;;;;17.10;13.90;;;14.30;99.90;;;;;;4997716;28;20200;-80
2022/09/24 06:08:07;;;;;;;15.88;14.02;;;14.30;99.90;;;;;;5015477;28;20204;-80
2022/09/24 06:10:37;;;;;;;15.52;13.93;;;14.30;99.90;;;;;;4999900;28;20207;-81
2022/09/24 06:13:05;;;;;;;15.13;13.52;;;14.30;99.90;;;;;;5013124;28;20224;-81
2022/09/24 06:15:33;;;;;;;15.98;13.93;;;14.30;99.90;;;;;;4996569;28;20208;-83
2022/09/24 06:18:01;;;;;;;14.85;13.00;;;14.30;99.90;;;;;;5004842;28;20752;-82
2022/09/24 06:20:29;;;;;;;19.98;13.45;;;14.40;99.90;;;;;;5002223;28;20475;-81
2022/09/24 06:22:57;;;;;;;16.73;14.18;;;14.40;99.90;;;;;;5014398;28;20223;-82
2022/09/24 06:25:28;;;;;;;15.98;13.43;;;14.30;99.90;;;;;;5001757;28;20205;-83
2022/09/24 06:28:00;;;;;;;16.45;13.68;;;14.20;99.90;;;;;;5012610;28;20654;-81
2022/09/24 06:30:41;;;;;;;15.15;12.27;;;14.40;99.90;;;;;;4995727;28;20204;-82
2022/09/24 06:33:20;;;;;;;17.50;13.35;;;14.50;99.90;;;;;;5001445;28;20220;-83
2022/09/24 06:35:48;;;;;;;15.48;13.52;;;14.50;99.90;;;;;;4999491;28;20218;-81
2022/09/24 06:38:17;;;;;;;15.63;13.18;;;14.60;99.90;;;;;;4997811;28;20207;-81
2022/09/24 06:40:47;;;;;;;15.70;12.98;;;14.60;99.90;;;;;;4996824;28;20203;-83
2022/09/24 06:43:17;;;;;;;13.63;12.15;;;14.60;99.90;;;;;;5000435;28;20216;-82
2022/09/24 06:45:48;;;;;;;14.63;12.85;;;14.50;99.90;;;;;;4998769;28;20207;-83
2022/09/24 06:48:18;;;;;;;15.02;13.02;;;14.60;99.90;;;;;;5002711;28;20207;-82
2022/09/24 06:50:46;;;;;;;15.73;13.02;;;14.60;99.90;;;;;;5013114;28;20217;-80
2022/09/24 06:53:14;;;;;;;16.55;13.52;;;14.40;99.90;;;;;;4997151;28;20585;-79
2022/09/24 06:55:45;;;;;;;15.15;13.48;;;14.40;99.90;;;;;;5013016;28;20207;-80
2022/09/24 06:58:15;;;;;;;16.52;13.27;;;14.50;99.90;;;;;;5001033;28;20243;-82
2022/09/24 07:00:52;;;;;;;16.70;13.52;;;14.50;99.90;;;;;;4994683;28;20292;-82
2022/09/24 07:03:20;;;;;;;17.55;13.93;;;14.50;99.90;;;;;;5006270;28;20650;-81
2022/09/24 07:05:51;;;;;;;15.30;13.40;;;14.60;99.90;;;;;;4995358;28;20207;-82
2022/09/24 07:08:19;;;;;;;15.32;13.10;;;14.70;99.90;;;;;;5006824;28;20207;-82
2022/09/24 07:10:51;;;;;;;18.90;13.38;;;14.70;99.90;;;;;;4999422;28;20208;-82
2022/09/24 07:13:22;;;;;;;16.02;12.35;;;14.80;99.90;;;;;;5001162;28;20231;-83
2022/09/24 07:15:55;;;;;;;17.05;12.80;;;15.00;99.90;;;;;;5019773;28;20204;-84
2022/09/24 07:18:27;;;;;;;17.60;12.93;;;15.00;99.90;;;;;;5020208;28;20188;-83
2022/09/24 07:20:56;;;;;;;15.93;13.38;;;14.90;99.90;;;;;;5020030;28;20204;-82
2022/09/24 07:23:26;;;;;;;16.67;13.43;;;14.80;99.90;;;;;;5004354;28;20227;-82
2022/09/24 07:25:56;;;;;;;16.80;13.48;;;14.90;99.90;;;;;;4995755;28;20204;-82
2022/09/24 07:28:25;;;;;;;18.13;14.20;;;15.00;99.90;;;;;;5007519;28;20199;-84
2022/09/24 07:31:00;;;;;;;18.67;13.88;;;15.00;99.90;;;;;;5009016;28;20207;-85
2022/09/24 07:33:33;;;;;;;17.10;13.98;;;15.10;99.90;;;;;;5024988;28;20225;-83
2022/09/24 07:36:06;;;;;;;18.02;13.85;;;15.20;99.90;;;;;;4999504;28;20194;-83
2022/09/24 07:38:42;;;;;;;15.48;13.30;;;15.30;99.90;;;;;;5030697;28;20176;-82
2022/09/24 07:41:17;;;;;;;19.42;14.05;;;15.40;99.90;;;;;;5013940;28;20204;-83
2022/09/24 07:43:46;;;;;;;16.50;13.55;;;15.40;99.90;;;;;;5010340;28;20242;-82
2022/09/24 07:46:18;;;;;;;16.05;12.93;;;15.40;99.90;;;;;;5006375;28;20201;-82
2022/09/24 07:49:01;;;;;;;16.60;13.52;;;15.50;99.90;;;;;;5004062;28;20219;-82
2022/09/24 07:51:38;;;;;;;16.73;13.82;;;15.60;99.90;;;;;;5004268;28;20663;-82
2022/09/24 07:54:06;;;;;;;22.13;14.48;;;15.60;99.90;;;;;;5018476;28;20196;-82
2022/09/24 07:56:36;;;;;;;17.40;14.60;;;15.60;99.90;;;;;;5005342;28;20200;-81
2022/09/24 07:59:05;;;;;;;18.42;14.73;;;15.60;99.90;;;;;;5006876;28;20203;-81
2022/09/24 08:01:34;;;;;;;16.60;13.25;;;15.50;99.90;;;;;;5022656;28;20200;-81
2022/09/24 08:04:03;;;;;;;20.15;15.70;;;15.60;99.90;;;;;;5007682;28;20216;-81
2022/09/24 08:06:32;;;;;;;19.55;14.60;;;15.50;99.90;;;;;;5005116;28;20201;-81
2022/09/24 08:09:00;;;;;;;19.85;15.07;;;15.50;99.90;;;;;;5009010;28;20201;-83
2022/09/24 08:11:29;;;;;;;21.67;16.15;;;15.50;99.90;;;;;;5024941;28;20219;-84
2022/09/24 08:13:58;;;;;;;21.45;15.80;;;15.40;99.90;;;;;;5008089;28;20228;-83
2022/09/24 08:16:26;;;;;;;18.52;14.20;;;15.40;99.90;;;;;;5008774;28;20203;-84
2022/09/24 08:18:55;;;;;;;19.02;14.40;;;15.50;99.90;;;;;;5011265;28;20207;-85
2022/09/24 08:21:23;;;;;;;21.67;15.05;;;15.60;99.90;;;;;;5024109;28;20203;-83
2022/09/24 08:23:51;;;;;;;20.95;16.55;;;15.60;99.90;;;;;;5009038;28;20227;-83
2022/09/24 08:26:19;;;;;;;20.33;14.88;;;15.70;99.90;;;;;;5005063;28;20205;-83
2022/09/24 08:28:50;;;;;;;19.17;14.73;;;15.60;99.90;;;;;;5000062;28;20647;-81
2022/09/24 08:31:18;;;;;;;18.05;14.30;;;15.60;99.90;;;;;;5002984;28;20208;-82
2022/09/24 08:33:49;;;;;;;18.80;15.30;;;15.60;99.90;;;;;;5010600;28;20224;-80
2022/09/24 08:36:18;;;;;;;18.10;14.27;;;15.50;99.90;;;;;;5005389;28;20211;-79
2022/09/24 08:38:47;;;;;;;19.73;14.05;;;15.60;99.90;;;;;;5010436;28;20192;-80
2022/09/24 08:41:27;;;;;;;20.83;14.18;;;15.70;99.90;;;;;;5007963;28;20196;-80
2022/09/24 08:44:01;;;;;;;18.15;13.70;;;15.70;99.90;;;;;;4990916;28;20224;-79
2022/09/24 08:49:23;;;;;;;21.02;16.30;;;15.80;99.90;;;;;;5007594;28;20192;-79
2022/09/24 08:52:02;;;;;;;17.98;14.70;;;16.00;99.90;;;;;;4991425;28;20200;-82
2022/09/24 08:54:33;;;;;;;23.15;15.30;;;16.10;99.90;;;;;;5005175;28;20192;-82
2022/09/24 08:57:06;;;;;;;18.05;15.23;;;16.00;99.90;;;;;;4986211;28;20197;-82
2022/09/24 08:59:44;;;;;;;18.55;14.38;;;15.80;99.90;;;;;;4993273;28;20196;-81
2022/09/24 09:02:33;;;;;;;18.38;14.30;;;15.80;99.90;;;;;;4994760;28;20317;-82
2022/09/24 09:05:17;;;;;;;17.70;14.02;;;15.90;99.90;;;;;;5015275;28;20709;-82
2022/09/24 09:07:55;;;;;;;19.08;14.43;;;16.00;99.90;;;;;;5007757;28;20652;-80
2022/09/24 09:10:29;;;;;;;19.60;14.65;;;16.10;99.90;;;;;;4996523;28;20204;-81
2022/09/24 09:13:06;;;;;;;18.25;14.25;;;16.00;99.90;;;;;;5005997;28;20588;-80
2022/09/24 09:15:40;;;;;;;16.88;14.02;;;16.10;99.90;;;;;;5007638;28;20706;-84
2022/09/24 09:18:15;;;;;;;19.52;14.43;;;16.10;99.90;;;;;;4991835;28;20206;-80
2022/09/24 09:20:50;;;;;;;15.63;13.45;;;16.10;99.90;;;;;;4991042;28;20203;-80
2022/09/24 09:23:22;;;;;;;17.80;13.82;;;16.20;99.90;;;;;;5005928;28;20225;-81
2022/09/24 09:26:26;;;;;;;18.65;13.57;;;16.30;99.90;;;;;;4994590;28;20228;-82
2022/09/24 09:29:00;;;;;;;17.75;12.88;;;16.40;99.90;;;;;;4990761;28;20203;-83
2022/09/24 09:31:44;;;;;;;16.30;13.23;;;16.50;99.90;;;;;;4989913;28;20196;-81
2022/09/24 09:34:37;;;;;;;19.58;13.57;;;16.40;99.90;;;;;;4993265;28;20204;-80
2022/09/24 09:41:06;;;;;;;15.52;12.50;;;16.50;99.90;;;;;;4891254;28;20294;-81
2022/09/24 09:43:34;;;;;;;14.85;11.65;;;16.50;99.90;;;;;;4995887;28;20212;-80
2022/09/24 09:46:11;;;;;;;15.45;11.80;;;16.60;99.90;;;;;;4981600;28;20200;-80
2022/09/24 09:48:54;;;;;;;14.27;11.50;;;16.80;99.90;;;;;;4992652;28;20203;-83
2022/09/24 09:51:40;;;;;;;13.32;10.55;;;16.70;99.90;;;;;;4989417;28;20208;-83
2022/09/24 09:58:17;;;;;;;11.60;8.88;;;16.90;99.90;;;;;;4998103;28;20210;-84
2022/09/24 10:00:47;;;;;;;14.77;10.32;;;16.90;99.90;;;;;;4994133;28;20211;-82
2022/09/24 10:03:24;;;;;;;16.23;12.38;;;16.60;99.90;;;;;;4980175;28;20212;-83
2022/09/24 10:05:56;;;;;;;14.77;11.18;;;16.50;99.90;;;;;;4985149;28;20235;-82
2022/09/24 10:08:25;;;;;;;16.73;12.00;;;16.60;99.90;;;;;;5000844;28;20211;-82
2022/09/24 10:10:56;;;;;;;13.48;10.85;;;16.70;99.90;;;;;;4979440;28;20205;-84
2022/09/24 10:13:30;;;;;;;13.25;11.27;;;16.80;99.90;;;;;;4977479;28;20228;-86
2022/09/24 10:16:00;;;;;;;14.25;10.98;;;16.90;99.90;;;;;;4979640;28;20200;-81
2022/09/24 10:18:32;;;;;;;13.23;10.85;;;17.00;99.90;;;;;;4977105;28;20201;-83
2022/09/24 10:21:05;;;;;;;13.25;11.35;;;17.20;99.90;;;;;;4980371;28;20204;-82
2022/09/24 10:23:36;;;;;;;13.73;10.32;;;17.20;99.90;;;;;;4981571;28;20236;-82
2022/09/24 10:26:05;;;;;;;12.02;9.27;;;17.20;99.90;;;;;;4980146;28;20263;-82
2022/09/24 10:32:23;;;;;;;11.32;9.48;;;17.50;99.90;;;;;;4977278;28;20235;-82
2022/09/24 10:35:01;;;;;;;9.80;7.85;;;17.40;99.90;;;;;;4992359;28;20204;-82
2022/09/24 10:38:08;;;;;;;;;;;;;;;;;;;;;
2022/09/24 10:40:48;;;;;;;9.30;7.10;;;16.90;99.90;;;;;;4990192;28;20209;-83
2022/09/24 10:43:18;;;;;;;9.80;8.10;;;17.00;99.90;;;;;;4983474;28;20221;-83
2022/09/24 10:46:18;;;;;;;10.98;7.35;;;17.00;99.90;;;;;;4986136;28;20279;-83
2022/09/24 10:48:56;;;;;;;9.02;7.43;;;17.00;99.90;;;;;;4987946;28;20201;-87
2022/09/24 10:51:36;;;;;;;8.98;8.05;;;17.00;99.90;;;;;;4988610;28;20209;-83
2022/09/24 10:54:17;;;;;;;9.18;8.23;;;17.00;99.90;;;;;;4987529;28;20209;-83
2022/09/24 10:56:50;;;;;;;9.95;8.65;;;17.00;99.90;;;;;;4971642;28;20209;-82
2022/09/24 10:59:50;;;;;;;11.00;8.40;;;17.00;99.90;;;;;;4986764;28;20197;-84
2022/09/24 11:02:45;;;;;;;10.15;8.48;;;16.90;99.90;;;;;;4978452;28;20213;-84
2022/09/24 11:05:20;;;;;;;10.10;8.75;;;16.90;99.90;;;;;;4966394;28;20227;-85
2022/09/24 11:08:18;;;;;;;9.73;8.73;;;16.90;99.90;;;;;;4988217;28;20216;-84
2022/09/24 11:11:01;;;;;;;12.15;9.68;;;16.80;99.90;;;;;;4969295;28;20209;-85
2022/09/24 11:13:39;;;;;;;9.45;8.55;;;16.80;99.90;;;;;;4997189;28;20713;-86
2022/09/24 11:16:22;;;;;;;10.88;9.00;;;16.70;99.90;;;;;;4989619;28;20201;-82
2022/09/24 11:18:57;;;;;;;9.70;8.70;;;16.70;99.90;;;;;;4971654;28;20212;-82
2022/09/24 11:21:54;;;;;;;10.10;8.90;;;16.80;99.90;;;;;;4991298;28;20201;-80
2022/09/24 11:24:39;;;;;;;10.57;9.20;;;16.80;99.90;;;;;;4980933;28;20269;-81
2022/09/24 11:27:23;;;;;;;11.75;9.85;;;16.80;99.90;;;;;;4977401;28;20188;-83
2022/09/24 11:30:07;;;;;;;10.38;9.32;;;16.80;99.90;;;;;;4979922;28;20213;-81
2022/09/24 11:32:42;;;;;;;10.88;9.55;;;16.90;99.90;;;;;;4984388;28;20235;-82
2022/09/24 11:35:30;;;;;;;11.15;9.55;;;16.90;99.90;;;;;;4969990;28;20204;-81
2022/09/24 11:38:02;;;;;;;11.38;9.63;;;16.90;99.90;;;;;;4989625;28;20213;-81
2022/09/24 11:40:50;;;;;;;13.38;10.40;;;17.00;99.90;;;;;;4989952;28;20224;-81
2022/09/24 11:43:59;;;;;;;11.55;9.32;;;16.90;99.90;;;;;;4976071;28;20252;-83
2022/09/24 11:46:43;;;;;;;11.25;9.25;;;16.80;99.90;;;;;;4953297;28;20228;-81
2022/09/24 11:49:37;;;;;;;14.45;10.88;;;16.70;99.90;;;;;;4986363;28;20201;-82
2022/09/24 11:52:12;;;;;;;14.80;11.55;;;16.50;99.90;;;;;;4990605;28;20228;-81
2022/09/24 11:54:48;;;;;;;13.13;10.90;;;16.40;99.90;;;;;;5000508;28;20207;-81
2022/09/24 11:57:19;;;;;;;13.13;11.10;;;16.40;99.90;;;;;;4982573;28;20208;-81
2022/09/24 11:59:52;;;;;;;13.93;11.07;;;16.50;99.90;;;;;;4986971;28;20193;-81
2022/09/24 12:02:25;;;;;;;13.40;10.68;;;16.60;99.90;;;;;;4997062;28;20229;-82
2022/09/24 12:05:00;;;;;;;12.43;10.70;;;16.70;99.90;;;;;;4983057;28;20204;-81
2022/09/24 12:07:34;;;;;;;13.65;11.75;;;16.90;99.90;;;;;;4984514;28;20217;-80
2022/09/24 12:10:07;;;;;;;17.88;12.43;;;17.30;99.90;;;;;;4990036;28;20201;-80
2022/09/24 12:12:40;;;;;;;15.35;13.07;;;17.50;99.90;;;;;;4992606;28;20232;-81
2022/09/24 12:15:18;;;;;;;13.05;11.63;;;17.40;99.90;;;;;;4976077;28;20197;-79
2022/09/24 12:17:49;;;;;;;12.88;11.52;;;17.40;99.90;;;;;;4995786;28;20223;-79
2022/09/24 12:20:21;;;;;;;13.35;12.02;;;17.60;99.90;;;;;;4994934;28;20201;-79
2022/09/24 12:22:54;;;;;;;14.90;11.23;;;17.70;99.90;;;;;;4996363;28;20220;-81
2022/09/24 12:25:22;;;;;;;15.65;12.82;;;17.80;99.90;;;;;;4976671;28;20221;-80
2022/09/24 12:27:50;;;;;;;14.00;11.98;;;17.80;99.90;;;;;;4978760;28;20205;-80
2022/09/24 12:33:21;;;;;;;15.82;13.38;;;17.50;99.90;;;;;;4979557;28;20236;-83
2022/09/24 12:36:04;;;;;;;14.23;12.45;;;17.40;99.90;;;;;;4976516;28;20209;-84
2022/09/24 12:38:37;;;;;;;14.65;12.15;;;17.40;99.90;;;;;;4993794;28;20205;-82
2022/09/24 12:41:20;;;;;;;14.93;12.57;;;17.50;99.90;;;;;;4970055;28;20670;-80
2022/09/24 12:43:52;;;;;;;14.77;12.30;;;17.40;99.90;;;;;;4987098;28;20224;-82
2022/09/24 12:46:22;;;;;;;13.32;11.55;;;17.40;99.90;;;;;;4968882;28;20232;-80
2022/09/24 12:48:51;;;;;;;13.80;12.25;;;17.40;99.90;;;;;;4967504;28;20571;-80
2022/09/24 12:51:22;;;;;;;14.98;13.38;;;17.40;99.90;;;;;;4982314;28;20201;-80
2022/09/24 12:54:00;;;;;;;16.92;13.65;;;17.30;99.90;;;;;;4983645;28;20225;-79
2022/09/24 12:56:29;;;;;;;15.35;12.07;;;17.40;99.90;;;;;;4985053;28;20197;-80
2022/09/24 12:58:58;;;;;;;15.32;13.50;;;17.50;99.90;;;;;;4975851;28;20208;-80
2022/09/24 13:01:30;;;;;;;16.13;13.65;;;17.40;99.90;;;;;;4972811;28;20209;-83
2022/09/24 13:04:23;;;;;;;15.45;13.23;;;17.30;99.90;;;;;;4985149;28;20228;-82
2022/09/24 13:06:52;;;;;;;17.15;12.43;;;17.40;99.90;;;;;;4970784;28;20710;-79
2022/09/24 13:09:36;;;;;;;14.98;13.43;;;17.20;99.90;;;;;;4969630;28;20212;-80
2022/09/24 13:12:20;;;;;;;15.75;12.63;;;17.20;99.90;;;;;;4981809;28;20248;-80
2022/09/24 13:14:54;;;;;;;14.13;12.60;;;17.10;99.90;;;;;;4984728;28;20205;-80
2022/09/24 13:17:22;;;;;;;13.85;11.35;;;17.10;99.90;;;;;;4983618;28;20725;-81
2022/09/24 13:19:56;;;;;;;12.43;10.93;;;17.10;99.90;;;;;;4986098;28;20220;-80